sensor_id;sensor_type;location;lat;lon;timestamp;temperature;humidity
25937;DHT22;13733;51.178;4.450;2023-04-24T00:00:05;10.90;99.90
25937;DHT22;13733;51.178;4.450;2023-04-24T00:02:38;10.90;99.90
25937;DHT22;13733;51.178;4.450;2023-04-24T00:05:05;10.70;99.90
25937;DHT22;13733;51.178;4.450;2023-04-24T00:07:31;10.70;99.90
25937;DHT22;13733;51.178;4.450;2023-04-24T00:09:58;10.80;99.90
25937;DHT22;13733;51.178;4.450;2023-04-24T00:12:24;10.80;99.90
25937;DHT22;13733;51.178;4.450;2023-04-24T00:14:50;10.80;99.90
25937;DHT22;13733;51.178;4.450;2023-04-24T00:17:16;10.90;99.90
25937;DHT22;13733;51.178;4.450;2023-04-24T00:19:46;10.70;99.90
25937;DHT22;13733;51.178;4.450;2023-04-24T00:22:11;10.70;99.90
25937;DHT22;13733;51.178;4.450;2023-04-24T00:24:39;10.70;99.90
25937;DHT22;13733;51.178;4.450;2023-04-24T00:27:05;10.70;99.90
25937;DHT22;13733;51.178;4.450;2023-04-24T00:29:30;10.80;99.90
25937;DHT22;13733;51.178;4.450;2023-04-24T00:31:56;10.90;99.90
25937;DHT22;13733;51.178;4.450;2023-04-24T00:34:22;10.90;99.90
25937;DHT22;13733;51.178;4.450;2023-04-24T00:36:48;10.80;99.90
25937;DHT22;13733;51.178;4.450;2023-04-24T00:39:21;10.80;99.90
25937;DHT22;13733;51.178;4.450;2023-04-24T00:41:47;10.70;99.90
25937;DHT22;13733;51.178;4.450;2023-04-24T00:44:14;10.60;99.90
25937;DHT22;13733;51.178;4.450;2023-04-24T00:46:40;10.80;99.90
25937;DHT22;13733;51.178;4.450;2023-04-24T00:49:06;10.80;99.90
25937;DHT22;13733;51.178;4.450;2023-04-24T00:51:32;10.90;99.90
25937;DHT22;13733;51.178;4.450;2023-04-24T00:54:01;10.80;99.90
25937;DHT22;13733;51.178;4.450;2023-04-24T00:56:28;10.70;99.90
25937;DHT22;13733;51.178;4.450;2023-04-24T00:58:54;10.80;99.90
25937;DHT22;13733;51.178;4.450;2023-04-24T01:01:21;10.70;99.90
25937;DHT22;13733;51.178;4.450;2023-04-24T01:03:49;10.70;99.90
25937;DHT22;13733;51.178;4.450;2023-04-24T01:06:16;10.80;99.90
25937;DHT22;13733;51.178;4.450;2023-04-24T01:08:44;10.70;99.90
25937;DHT22;13733;51.178;4.450;2023-04-24T01:11:11;10.50;99.90
25937;DHT22;13733;51.178;4.450;2023-04-24T01:13:37;10.50;99.90
25937;DHT22;13733;51.178;4.450;2023-04-24T01:16:03;10.50;99.90
25937;DHT22;13733;51.178;4.450;2023-04-24T01:18:29;10.50;99.90
25937;DHT22;13733;51.178;4.450;2023-04-24T01:20:59;10.50;99.90
25937;DHT22;13733;51.178;4.450;2023-04-24T01:23:30;10.50;99.90
25937;DHT22;13733;51.178;4.450;2023-04-24T01:25:56;10.60;99.90
25937;DHT22;13733;51.178;4.450;2023-04-24T01:28:22;10.50;99.90
25937;DHT22;13733;51.178;4.450;2023-04-24T01:30:48;10.50;99.90
25937;DHT22;13733;51.178;4.450;2023-04-24T01:33:14;10.50;99.90
25937;DHT22;13733;51.178;4.450;2023-04-24T01:35:40;10.50;99.90
25937;DHT22;13733;51.178;4.450;2023-04-24T01:38:06;10.50;99.90
25937;DHT22;13733;51.178;4.450;2023-04-24T01:40:32;10.50;99.90
25937;DHT22;13733;51.178;4.450;2023-04-24T01:42:58;10.50;99.90
25937;DHT22;13733;51.178;4.450;2023-04-24T01:45:24;10.60;99.90
25937;DHT22;13733;51.178;4.450;2023-04-24T01:47:50;10.50;99.90
25937;DHT22;13733;51.178;4.450;2023-04-24T01:50:17;10.60;99.90
25937;DHT22;13733;51.178;4.450;2023-04-24T01:52:43;10.60;99.90
25937;DHT22;13733;51.178;4.450;2023-04-24T01:55:09;10.60;99.90
25937;DHT22;13733;51.178;4.450;2023-04-24T01:57:35;10.60;99.90
25937;DHT22;13733;51.178;4.450;2023-04-24T02:00:02;10.50;99.90
25937;DHT22;13733;51.178;4.450;2023-04-24T02:02:41;10.60;99.90
25937;DHT22;13733;51.178;4.450;2023-04-24T02:05:08;10.60;99.90
25937;DHT22;13733;51.178;4.450;2023-04-24T02:07:36;10.50;99.90
25937;DHT22;13733;51.178;4.450;2023-04-24T02:10:02;10.50;99.90
25937;DHT22;13733;51.178;4.450;2023-04-24T02:12:29;10.50;99.90
25937;DHT22;13733;51.178;4.450;2023-04-24T02:14:55;10.40;99.90
25937;DHT22;13733;51.178;4.450;2023-04-24T02:17:21;10.40;99.90
25937;DHT22;13733;51.178;4.450;2023-04-24T02:19:48;10.50;99.90
25937;DHT22;13733;51.178;4.450;2023-04-24T02:22:13;10.50;99.90
25937;DHT22;13733;51.178;4.450;2023-04-24T02:24:39;10.50;99.90
25937;DHT22;13733;51.178;4.450;2023-04-24T02:27:06;10.40;99.90
25937;DHT22;13733;51.178;4.450;2023-04-24T02:29:32;10.40;99.90
25937;DHT22;13733;51.178;4.450;2023-04-24T02:31:58;10.30;99.90
25937;DHT22;13733;51.178;4.450;2023-04-24T02:34:23;10.40;99.90
25937;DHT22;13733;51.178;4.450;2023-04-24T02:36:49;10.40;99.90
25937;DHT22;13733;51.178;4.450;2023-04-24T02:39:15;10.40;99.90
25937;DHT22;13733;51.178;4.450;2023-04-24T02:41:44;10.40;99.90
25937;DHT22;13733;51.178;4.450;2023-04-24T02:44:10;10.40;99.90
25937;DHT22;13733;51.178;4.450;2023-04-24T02:46:36;10.40;99.90
25937;DHT22;13733;51.178;4.450;2023-04-24T02:49:02;10.20;99.90
25937;DHT22;13733;51.178;4.450;2023-04-24T02:51:28;10.20;99.90
25937;DHT22;13733;51.178;4.450;2023-04-24T02:53:54;10.10;99.90
25937;DHT22;13733;51.178;4.450;2023-04-24T02:56:20;10.10;99.90
25937;DHT22;13733;51.178;4.450;2023-04-24T02:58:45;10.00;99.90
25937;DHT22;13733;51.178;4.450;2023-04-24T03:01:11;9.70;99.90
25937;DHT22;13733;51.178;4.450;2023-04-24T03:03:38;9.60;99.90
25937;DHT22;13733;51.178;4.450;2023-04-24T03:06:05;9.70;99.90
25937;DHT22;13733;51.178;4.450;2023-04-24T03:08:32;9.80;99.90
25937;DHT22;13733;51.178;4.450;2023-04-24T03:10:58;9.70;99.90
25937;DHT22;13733;51.178;4.450;2023-04-24T03:13:23;9.70;99.90
25937;DHT22;13733;51.178;4.450;2023-04-24T03:15:49;9.70;99.90
25937;DHT22;13733;51.178;4.450;2023-04-24T03:18:15;9.60;99.90
25937;DHT22;13733;51.178;4.450;2023-04-24T03:20:41;9.60;99.90
25937;DHT22;13733;51.178;4.450;2023-04-24T03:23:08;9.60;99.90
25937;DHT22;13733;51.178;4.450;2023-04-24T03:25:35;9.60;99.90
25937;DHT22;13733;51.178;4.450;2023-04-24T03:28:02;9.50;99.90
25937;DHT22;13733;51.178;4.450;2023-04-24T03:30:39;9.50;99.90
25937;DHT22;13733;51.178;4.450;2023-04-24T03:33:06;9.50;99.90
25937;DHT22;13733;51.178;4.450;2023-04-24T03:35:35;9.50;99.90
25937;DHT22;13733;51.178;4.450;2023-04-24T03:38:05;9.60;99.90
25937;DHT22;13733;51.178;4.450;2023-04-24T03:40:52;9.50;99.90
25937;DHT22;13733;51.178;4.450;2023-04-24T03:43:33;9.60;99.90
25937;DHT22;13733;51.178;4.450;2023-04-24T03:46:00;9.50;99.90
25937;DHT22;13733;51.178;4.450;2023-04-24T03:48:27;9.50;99.90
25937;DHT22;13733;51.178;4.450;2023-04-24T03:50:54;9.50;99.90
25937;DHT22;13733;51.178;4.450;2023-04-24T03:53:20;9.40;99.90
25937;DHT22;13733;51.178;4.450;2023-04-24T03:55:46;9.30;99.90
25937;DHT22;13733;51.178;4.450;2023-04-24T03:58:13;9.30;99.90
25937;DHT22;13733;51.178;4.450;2023-04-24T04:00:40;9.30;99.90
25937;DHT22;13733;51.178;4.450;2023-04-24T04:03:29;9.30;99.90
25937;DHT22;13733;51.178;4.450;2023-04-24T04:05:55;9.20;99.90
25937;DHT22;13733;51.178;4.450;2023-04-24T04:08:21;9.30;99.90
25937;DHT22;13733;51.178;4.450;2023-04-24T04:10:47;9.20;99.90
25937;DHT22;13733;51.178;4.450;2023-04-24T04:13:13;9.20;99.90
25937;DHT22;13733;51.178;4.450;2023-04-24T04:15:40;9.10;99.90
25937;DHT22;13733;51.178;4.450;2023-04-24T04:18:06;9.10;99.90
25937;DHT22;13733;51.178;4.450;2023-04-24T04:20:32;9.10;99.90
25937;DHT22;13733;51.178;4.450;2023-04-24T04:22:58;9.10;99.90
25937;DHT22;13733;51.178;4.450;2023-04-24T04:25:35;9.10;99.90
25937;DHT22;13733;51.178;4.450;2023-04-24T04:28:01;9.20;99.90
25937;DHT22;13733;51.178;4.450;2023-04-24T04:30:28;9.10;99.90
25937;DHT22;13733;51.178;4.450;2023-04-24T04:33:01;9.00;99.90
25937;DHT22;13733;51.178;4.450;2023-04-24T04:35:28;8.90;99.90
25937;DHT22;13733;51.178;4.450;2023-04-24T04:37:55;8.90;99.90
25937;DHT22;13733;51.178;4.450;2023-04-24T04:40:53;9.00;99.90
25937;DHT22;13733;51.178;4.450;2023-04-24T04:43:21;9.10;99.90
25937;DHT22;13733;51.178;4.450;2023-04-24T04:45:52;9.10;99.90
25937;DHT22;13733;51.178;4.450;2023-04-24T04:48:29;9.10;99.90
25937;DHT22;13733;51.178;4.450;2023-04-24T04:50:58;9.20;99.90
25937;DHT22;13733;51.178;4.450;2023-04-24T04:53:25;9.10;99.90
25937;DHT22;13733;51.178;4.450;2023-04-24T04:55:51;9.00;99.90
25937;DHT22;13733;51.178;4.450;2023-04-24T04:58:18;9.00;99.90
25937;DHT22;13733;51.178;4.450;2023-04-24T05:00:46;9.00;99.90
25937;DHT22;13733;51.178;4.450;2023-04-24T05:03:20;8.90;99.90
25937;DHT22;13733;51.178;4.450;2023-04-24T05:05:48;8.80;99.90
25937;DHT22;13733;51.178;4.450;2023-04-24T05:08:17;8.80;99.90
25937;DHT22;13733;51.178;4.450;2023-04-24T05:10:42;8.90;99.90
25937;DHT22;13733;51.178;4.450;2023-04-24T05:13:08;8.90;99.90
25937;DHT22;13733;51.178;4.450;2023-04-24T05:15:34;8.90;99.90
25937;DHT22;13733;51.178;4.450;2023-04-24T05:18:00;8.80;99.90
25937;DHT22;13733;51.178;4.450;2023-04-24T05:20:27;8.90;99.90
25937;DHT22;13733;51.178;4.450;2023-04-24T05:22:54;8.90;99.90
25937;DHT22;13733;51.178;4.450;2023-04-24T05:25:21;9.00;99.90
25937;DHT22;13733;51.178;4.450;2023-04-24T05:28:03;8.80;99.90
25937;DHT22;13733;51.178;4.450;2023-04-24T05:30:29;8.80;99.90
25937;DHT22;13733;51.178;4.450;2023-04-24T05:32:56;8.80;99.90
25937;DHT22;13733;51.178;4.450;2023-04-24T05:35:22;8.70;99.90
25937;DHT22;13733;51.178;4.450;2023-04-24T05:37:48;8.80;99.90
25937;DHT22;13733;51.178;4.450;2023-04-24T05:40:16;8.70;99.90
25937;DHT22;13733;51.178;4.450;2023-04-24T05:42:42;8.80;99.90
25937;DHT22;13733;51.178;4.450;2023-04-24T05:45:09;8.70;99.90
25937;DHT22;13733;51.178;4.450;2023-04-24T05:47:37;8.70;99.90
25937;DHT22;13733;51.178;4.450;2023-04-24T05:50:03;8.80;99.90
25937;DHT22;13733;51.178;4.450;2023-04-24T05:52:29;8.80;99.90
25937;DHT22;13733;51.178;4.450;2023-04-24T05:54:56;8.80;99.90
25937;DHT22;13733;51.178;4.450;2023-04-24T05:57:24;8.90;99.90
25937;DHT22;13733;51.178;4.450;2023-04-24T05:59:59;9.00;99.90
25937;DHT22;13733;51.178;4.450;2023-04-24T06:02:25;9.00;99.90
25937;DHT22;13733;51.178;4.450;2023-04-24T06:04:52;8.90;99.90
25937;DHT22;13733;51.178;4.450;2023-04-24T06:07:17;8.80;99.90
25937;DHT22;13733;51.178;4.450;2023-04-24T06:09:44;8.80;99.90
25937;DHT22;13733;51.178;4.450;2023-04-24T06:12:10;8.80;99.90
25937;DHT22;13733;51.178;4.450;2023-04-24T06:15:03;8.80;99.90
25937;DHT22;13733;51.178;4.450;2023-04-24T06:17:48;8.80;99.90
25937;DHT22;13733;51.178;4.450;2023-04-24T06:20:16;8.80;99.90
25937;DHT22;13733;51.178;4.450;2023-04-24T06:22:41;8.80;99.90
25937;DHT22;13733;51.178;4.450;2023-04-24T06:25:09;8.90;99.90
25937;DHT22;13733;51.178;4.450;2023-04-24T06:27:35;9.00;99.90
25937;DHT22;13733;51.178;4.450;2023-04-24T06:30:02;9.00;99.90
25937;DHT22;13733;51.178;4.450;2023-04-24T06:32:27;9.00;99.90
25937;DHT22;13733;51.178;4.450;2023-04-24T06:34:53;9.00;99.90
25937;DHT22;13733;51.178;4.450;2023-04-24T06:37:22;9.00;99.90
25937;DHT22;13733;51.178;4.450;2023-04-24T06:39:48;9.00;99.90
25937;DHT22;13733;51.178;4.450;2023-04-24T06:42:14;9.00;99.90
25937;DHT22;13733;51.178;4.450;2023-04-24T06:44:43;8.90;99.90
25937;DHT22;13733;51.178;4.450;2023-04-24T06:47:09;8.90;99.90
25937;DHT22;13733;51.178;4.450;2023-04-24T06:49:36;8.90;99.90
25937;DHT22;13733;51.178;4.450;2023-04-24T06:52:02;8.80;99.90
25937;DHT22;13733;51.178;4.450;2023-04-24T06:54:29;8.80;99.90
25937;DHT22;13733;51.178;4.450;2023-04-24T06:56:55;9.00;99.90
25937;DHT22;13733;51.178;4.450;2023-04-24T06:59:25;9.20;99.90
25937;DHT22;13733;51.178;4.450;2023-04-24T07:01:51;9.10;99.90
25937;DHT22;13733;51.178;4.450;2023-04-24T07:04:17;9.20;99.90
25937;DHT22;13733;51.178;4.450;2023-04-24T07:06:47;9.30;99.90
25937;DHT22;13733;51.178;4.450;2023-04-24T07:09:12;9.20;99.90
25937;DHT22;13733;51.178;4.450;2023-04-24T07:11:45;9.30;99.90
25937;DHT22;13733;51.178;4.450;2023-04-24T07:14:11;9.10;99.90
25937;DHT22;13733;51.178;4.450;2023-04-24T07:16:37;9.10;99.90
25937;DHT22;13733;51.178;4.450;2023-04-24T07:19:03;9.20;99.90
25937;DHT22;13733;51.178;4.450;2023-04-24T07:21:29;9.20;99.90
25937;DHT22;13733;51.178;4.450;2023-04-24T07:23:58;9.30;99.90
25937;DHT22;13733;51.178;4.450;2023-04-24T07:26:26;9.50;99.90
25937;DHT22;13733;51.178;4.450;2023-04-24T07:28:52;9.60;99.90
25937;DHT22;13733;51.178;4.450;2023-04-24T07:31:18;9.70;99.90
25937;DHT22;13733;51.178;4.450;2023-04-24T07:33:44;9.70;99.90
25937;DHT22;13733;51.178;4.450;2023-04-24T07:36:10;9.80;99.90
25937;DHT22;13733;51.178;4.450;2023-04-24T07:38:42;9.80;99.90
25937;DHT22;13733;51.178;4.450;2023-04-24T07:41:07;9.80;99.90
25937;DHT22;13733;51.178;4.450;2023-04-24T07:43:34;9.90;99.90
25937;DHT22;13733;51.178;4.450;2023-04-24T07:46:00;9.80;99.90
25937;DHT22;13733;51.178;4.450;2023-04-24T07:48:26;9.90;99.90
25937;DHT22;13733;51.178;4.450;2023-04-24T07:50:53;10.10;99.90
25937;DHT22;13733;51.178;4.450;2023-04-24T07:53:19;10.30;99.90
25937;DHT22;13733;51.178;4.450;2023-04-24T07:55:45;10.40;99.90
25937;DHT22;13733;51.178;4.450;2023-04-24T07:58:11;10.40;99.90
25937;DHT22;13733;51.178;4.450;2023-04-24T08:00:37;10.50;99.90
25937;DHT22;13733;51.178;4.450;2023-04-24T08:03:02;10.70;99.90
25937;DHT22;13733;51.178;4.450;2023-04-24T08:05:28;10.90;99.90
25937;DHT22;13733;51.178;4.450;2023-04-24T08:07:55;10.80;99.90
25937;DHT22;13733;51.178;4.450;2023-04-24T08:10:22;10.70;99.90
25937;DHT22;13733;51.178;4.450;2023-04-24T08:12:48;10.80;99.90
25937;DHT22;13733;51.178;4.450;2023-04-24T08:15:14;10.70;99.90
25937;DHT22;13733;51.178;4.450;2023-04-24T08:17:40;10.40;99.90
25937;DHT22;13733;51.178;4.450;2023-04-24T08:20:06;10.30;99.90
25937;DHT22;13733;51.178;4.450;2023-04-24T08:22:35;10.10;99.90
25937;DHT22;13733;51.178;4.450;2023-04-24T08:25:01;9.80;99.90
25937;DHT22;13733;51.178;4.450;2023-04-24T08:27:27;9.70;99.90
25937;DHT22;13733;51.178;4.450;2023-04-24T08:29:53;9.70;99.90
25937;DHT22;13733;51.178;4.450;2023-04-24T08:32:19;9.70;99.90
25937;DHT22;13733;51.178;4.450;2023-04-24T08:34:45;9.80;99.90
25937;DHT22;13733;51.178;4.450;2023-04-24T08:37:11;9.90;99.90
25937;DHT22;13733;51.178;4.450;2023-04-24T08:39:37;9.90;99.90
25937;DHT22;13733;51.178;4.450;2023-04-24T08:42:04;10.00;99.90
25937;DHT22;13733;51.178;4.450;2023-04-24T08:44:34;10.10;99.90
25937;DHT22;13733;51.178;4.450;2023-04-24T08:47:02;10.40;99.90
25937;DHT22;13733;51.178;4.450;2023-04-24T08:49:29;10.50;99.90
25937;DHT22;13733;51.178;4.450;2023-04-24T08:51:55;10.60;99.90
25937;DHT22;13733;51.178;4.450;2023-04-24T08:54:21;11.00;99.90
25937;DHT22;13733;51.178;4.450;2023-04-24T08:56:48;11.30;99.90
25937;DHT22;13733;51.178;4.450;2023-04-24T08:59:15;11.40;99.90
25937;DHT22;13733;51.178;4.450;2023-04-24T09:01:41;11.20;99.90
25937;DHT22;13733;51.178;4.450;2023-04-24T09:04:08;10.90;99.90
25937;DHT22;13733;51.178;4.450;2023-04-24T09:06:39;10.80;99.90
25937;DHT22;13733;51.178;4.450;2023-04-24T09:09:05;10.90;99.90
25937;DHT22;13733;51.178;4.450;2023-04-24T09:11:32;10.90;99.90
25937;DHT22;13733;51.178;4.450;2023-04-24T09:14:00;10.70;99.90
25937;DHT22;13733;51.178;4.450;2023-04-24T09:16:26;10.60;99.90
25937;DHT22;13733;51.178;4.450;2023-04-24T09:18:53;10.50;99.90
25937;DHT22;13733;51.178;4.450;2023-04-24T09:21:21;10.20;99.90
25937;DHT22;13733;51.178;4.450;2023-04-24T09:23:58;10.20;99.90
25937;DHT22;13733;51.178;4.450;2023-04-24T09:26:25;10.20;99.90
25937;DHT22;13733;51.178;4.450;2023-04-24T09:28:51;10.60;99.90
25937;DHT22;13733;51.178;4.450;2023-04-24T09:31:18;10.80;99.90
25937;DHT22;13733;51.178;4.450;2023-04-24T09:34:20;10.60;99.90
25937;DHT22;13733;51.178;4.450;2023-04-24T09:36:46;10.60;99.90
25937;DHT22;13733;51.178;4.450;2023-04-24T09:39:13;10.80;99.90
25937;DHT22;13733;51.178;4.450;2023-04-24T09:41:49;10.80;99.90
25937;DHT22;13733;51.178;4.450;2023-04-24T09:44:17;10.90;99.90
25937;DHT22;13733;51.178;4.450;2023-04-24T09:46:46;11.00;99.90
25937;DHT22;13733;51.178;4.450;2023-04-24T09:49:15;11.10;99.90
25937;DHT22;13733;51.178;4.450;2023-04-24T09:51:42;11.60;99.90
25937;DHT22;13733;51.178;4.450;2023-04-24T09:54:19;11.70;99.90
25937;DHT22;13733;51.178;4.450;2023-04-24T09:56:50;11.60;99.90
25937;DHT22;13733;51.178;4.450;2023-04-24T09:59:17;11.60;99.90
25937;DHT22;13733;51.178;4.450;2023-04-24T10:01:43;11.70;99.90
25937;DHT22;13733;51.178;4.450;2023-04-24T10:04:25;11.70;99.90
25937;DHT22;13733;51.178;4.450;2023-04-24T10:06:56;11.90;99.90
25937;DHT22;13733;51.178;4.450;2023-04-24T10:09:24;12.00;99.90
25937;DHT22;13733;51.178;4.450;2023-04-24T10:11:51;12.30;99.90
25937;DHT22;13733;51.178;4.450;2023-04-24T10:14:21;12.70;99.90
25937;DHT22;13733;51.178;4.450;2023-04-24T10:16:47;12.80;99.90
25937;DHT22;13733;51.178;4.450;2023-04-24T10:19:14;12.90;99.90
25937;DHT22;13733;51.178;4.450;2023-04-24T10:21:43;12.50;99.90
25937;DHT22;13733;51.178;4.450;2023-04-24T10:24:16;12.60;99.90
25937;DHT22;13733;51.178;4.450;2023-04-24T10:26:43;12.50;99.90
25937;DHT22;13733;51.178;4.450;2023-04-24T10:29:11;12.70;99.90
25937;DHT22;13733;51.178;4.450;2023-04-24T10:31:38;12.90;99.90
25937;DHT22;13733;51.178;4.450;2023-04-24T10:34:05;12.60;99.90
25937;DHT22;13733;51.178;4.450;2023-04-24T10:36:33;12.20;99.90
25937;DHT22;13733;51.178;4.450;2023-04-24T10:39:02;12.00;99.90
25937;DHT22;13733;51.178;4.450;2023-04-24T10:41:30;12.30;99.90
25937;DHT22;13733;51.178;4.450;2023-04-24T10:44:18;12.50;99.90
25937;DHT22;13733;51.178;4.450;2023-04-24T10:46:53;13.00;99.90
25937;DHT22;13733;51.178;4.450;2023-04-24T10:49:30;13.10;99.90
25937;DHT22;13733;51.178;4.450;2023-04-24T10:52:01;13.30;99.90
25937;DHT22;13733;51.178;4.450;2023-04-24T10:54:28;13.40;99.90
25937;DHT22;13733;51.178;4.450;2023-04-24T11:00:13;13.00;99.90
25937;DHT22;13733;51.178;4.450;2023-04-24T11:02:40;12.90;99.90
25937;DHT22;13733;51.178;4.450;2023-04-24T11:05:15;13.10;99.90
25937;DHT22;13733;51.178;4.450;2023-04-24T11:13:25;12.60;99.90
25937;DHT22;13733;51.178;4.450;2023-04-24T11:16:14;12.80;99.90
25937;DHT22;13733;51.178;4.450;2023-04-24T11:18:42;13.70;99.90
25937;DHT22;13733;51.178;4.450;2023-04-24T11:21:18;14.40;99.90
25937;DHT22;13733;51.178;4.450;2023-04-24T11:23:45;14.40;99.90
25937;DHT22;13733;51.178;4.450;2023-04-24T11:26:31;14.80;99.90
25937;DHT22;13733;51.178;4.450;2023-04-24T11:29:08;15.00;99.90
25937;DHT22;13733;51.178;4.450;2023-04-24T11:31:34;14.90;99.90
25937;DHT22;13733;51.178;4.450;2023-04-24T11:34:13;14.20;99.90
25937;DHT22;13733;51.178;4.450;2023-04-24T11:36:42;13.80;99.90
25937;DHT22;13733;51.178;4.450;2023-04-24T11:39:08;13.80;99.90
25937;DHT22;13733;51.178;4.450;2023-04-24T11:41:36;13.50;99.90
25937;DHT22;13733;51.178;4.450;2023-04-24T11:44:02;13.20;99.90
25937;DHT22;13733;51.178;4.450;2023-04-24T11:46:30;13.00;99.90
25937;DHT22;13733;51.178;4.450;2023-04-24T11:48:57;13.10;99.90
25937;DHT22;13733;51.178;4.450;2023-04-24T11:51:25;13.30;99.90
25937;DHT22;13733;51.178;4.450;2023-04-24T11:53:53;13.50;99.90
25937;DHT22;13733;51.178;4.450;2023-04-24T11:56:21;13.80;99.90
25937;DHT22;13733;51.178;4.450;2023-04-24T11:58:47;13.90;99.90
25937;DHT22;13733;51.178;4.450;2023-04-24T12:01:13;13.80;99.90
25937;DHT22;13733;51.178;4.450;2023-04-24T12:03:39;14.00;99.90
25937;DHT22;13733;51.178;4.450;2023-04-24T12:06:10;14.30;99.90
25937;DHT22;13733;51.178;4.450;2023-04-24T12:08:37;14.60;99.90
25937;DHT22;13733;51.178;4.450;2023-04-24T12:11:04;14.50;99.90
25937;DHT22;13733;51.178;4.450;2023-04-24T12:13:30;14.40;99.90
25937;DHT22;13733;51.178;4.450;2023-04-24T12:15:57;14.30;99.90
25937;DHT22;13733;51.178;4.450;2023-04-24T12:18:23;14.80;99.90
25937;DHT22;13733;51.178;4.450;2023-04-24T12:20:49;14.80;99.90
25937;DHT22;13733;51.178;4.450;2023-04-24T12:23:16;14.80;99.90
25937;DHT22;13733;51.178;4.450;2023-04-24T12:25:43;14.70;99.90
25937;DHT22;13733;51.178;4.450;2023-04-24T12:28:11;14.70;99.90
25937;DHT22;13733;51.178;4.450;2023-04-24T12:30:49;14.60;99.90
25937;DHT22;13733;51.178;4.450;2023-04-24T12:33:19;14.20;99.90
25937;DHT22;13733;51.178;4.450;2023-04-24T12:35:45;14.00;99.90
25937;DHT22;13733;51.178;4.450;2023-04-24T12:38:12;14.10;99.90
25937;DHT22;13733;51.178;4.450;2023-04-24T12:40:40;14.30;99.90
25937;DHT22;13733;51.178;4.450;2023-04-24T12:43:18;14.10;99.90
25937;DHT22;13733;51.178;4.450;2023-04-24T12:45:44;13.90;99.90
25937;DHT22;13733;51.178;4.450;2023-04-24T12:48:11;14.00;99.90
25937;DHT22;13733;51.178;4.450;2023-04-24T12:50:38;14.20;99.90
25937;DHT22;13733;51.178;4.450;2023-04-24T12:53:03;15.00;99.90
25937;DHT22;13733;51.178;4.450;2023-04-24T12:55:29;15.40;99.90
25937;DHT22;13733;51.178;4.450;2023-04-24T12:57:55;16.10;99.90
25937;DHT22;13733;51.178;4.450;2023-04-24T13:00:21;16.00;99.90
25937;DHT22;13733;51.178;4.450;2023-04-24T13:02:47;15.50;99.90
25937;DHT22;13733;51.178;4.450;2023-04-24T13:05:13;15.40;99.90
25937;DHT22;13733;51.178;4.450;2023-04-24T13:07:39;15.10;99.90
25937;DHT22;13733;51.178;4.450;2023-04-24T13:10:06;14.80;99.90
25937;DHT22;13733;51.178;4.450;2023-04-24T13:12:32;14.80;99.90
25937;DHT22;13733;51.178;4.450;2023-04-24T13:14:58;15.10;99.90
25937;DHT22;13733;51.178;4.450;2023-04-24T13:17:24;15.10;99.90
25937;DHT22;13733;51.178;4.450;2023-04-24T13:19:51;15.30;99.90
25937;DHT22;13733;51.178;4.450;2023-04-24T13:22:17;15.20;98.30
25937;DHT22;13733;51.178;4.450;2023-04-24T13:24:46;15.50;98.50
25937;DHT22;13733;51.178;4.450;2023-04-24T13:27:15;16.50;95.20
25937;DHT22;13733;51.178;4.450;2023-04-24T13:29:40;17.30;93.50
25937;DHT22;13733;51.178;4.450;2023-04-24T13:32:07;16.90;93.60
25937;DHT22;13733;51.178;4.450;2023-04-24T13:34:33;16.70;93.90
25937;DHT22;13733;51.178;4.450;2023-04-24T13:37:01;16.40;94.00
25937;DHT22;13733;51.178;4.450;2023-04-24T13:39:27;17.60;94.20
25937;DHT22;13733;51.178;4.450;2023-04-24T13:41:53;19.00;86.70
25937;DHT22;13733;51.178;4.450;2023-04-24T13:44:20;19.10;83.50
25937;DHT22;13733;51.178;4.450;2023-04-24T13:46:47;19.60;81.80
25937;DHT22;13733;51.178;4.450;2023-04-24T13:49:14;19.50;77.40
25937;DHT22;13733;51.178;4.450;2023-04-24T13:51:40;18.60;74.80
25937;DHT22;13733;51.178;4.450;2023-04-24T13:54:06;18.30;79.20
25937;DHT22;13733;51.178;4.450;2023-04-24T13:56:32;17.80;78.30
25937;DHT22;13733;51.178;4.450;2023-04-24T13:58:58;18.10;79.10
25937;DHT22;13733;51.178;4.450;2023-04-24T14:01:24;18.90;75.80
25937;DHT22;13733;51.178;4.450;2023-04-24T14:03:54;19.60;70.40
25937;DHT22;13733;51.178;4.450;2023-04-24T14:06:20;19.90;70.40
25937;DHT22;13733;51.178;4.450;2023-04-24T14:08:47;20.30;65.10
25937;DHT22;13733;51.178;4.450;2023-04-24T14:11:13;19.40;68.10
25937;DHT22;13733;51.178;4.450;2023-04-24T14:13:41;18.80;70.00
25937;DHT22;13733;51.178;4.450;2023-04-24T14:16:07;19.50;71.20
25937;DHT22;13733;51.178;4.450;2023-04-24T14:18:33;20.10;69.90
25937;DHT22;13733;51.178;4.450;2023-04-24T14:20:59;20.90;67.30
25937;DHT22;13733;51.178;4.450;2023-04-24T14:23:26;20.70;69.80
25937;DHT22;13733;51.178;4.450;2023-04-24T14:25:52;19.10;69.70
25937;DHT22;13733;51.178;4.450;2023-04-24T14:28:21;17.70;76.50
25937;DHT22;13733;51.178;4.450;2023-04-24T14:30:48;16.60;85.60
25937;DHT22;13733;51.178;4.450;2023-04-24T14:33:14;15.90;90.40
25937;DHT22;13733;51.178;4.450;2023-04-24T14:35:41;15.90;92.10
25937;DHT22;13733;51.178;4.450;2023-04-24T14:38:10;17.70;91.10
25937;DHT22;13733;51.178;4.450;2023-04-24T14:40:36;18.60;81.00
25937;DHT22;13733;51.178;4.450;2023-04-24T14:43:02;20.30;74.30
25937;DHT22;13733;51.178;4.450;2023-04-24T14:45:28;21.60;63.30
25937;DHT22;13733;51.178;4.450;2023-04-24T14:47:55;20.20;60.70
25937;DHT22;13733;51.178;4.450;2023-04-24T14:50:21;19.40;66.70
25937;DHT22;13733;51.178;4.450;2023-04-24T14:52:47;18.10;72.40
25937;DHT22;13733;51.178;4.450;2023-04-24T14:55:13;17.80;74.80
25937;DHT22;13733;51.178;4.450;2023-04-24T14:57:40;17.80;72.00
25937;DHT22;13733;51.178;4.450;2023-04-24T15:00:07;18.20;72.50
25937;DHT22;13733;51.178;4.450;2023-04-24T15:02:36;18.10;72.90
25937;DHT22;13733;51.178;4.450;2023-04-24T15:05:06;17.50;77.20
25937;DHT22;13733;51.178;4.450;2023-04-24T15:07:32;17.00;81.40
25937;DHT22;13733;51.178;4.450;2023-04-24T15:09:58;16.50;87.80
25937;DHT22;13733;51.178;4.450;2023-04-24T15:12:24;16.60;89.90
25937;DHT22;13733;51.178;4.450;2023-04-24T15:14:51;18.40;85.10
25937;DHT22;13733;51.178;4.450;2023-04-24T15:17:16;20.50;71.60
25937;DHT22;13733;51.178;4.450;2023-04-24T15:19:42;21.00;64.60
25937;DHT22;13733;51.178;4.450;2023-04-24T15:22:09;21.20;64.00
25937;DHT22;13733;51.178;4.450;2023-04-24T15:24:35;20.50;62.30
25937;DHT22;13733;51.178;4.450;2023-04-24T15:27:00;20.20;62.90
25937;DHT22;13733;51.178;4.450;2023-04-24T15:29:27;19.30;65.40
25937;DHT22;13733;51.178;4.450;2023-04-24T15:31:53;18.90;67.70
25937;DHT22;13733;51.178;4.450;2023-04-24T15:34:19;18.20;67.50
25937;DHT22;13733;51.178;4.450;2023-04-24T15:36:45;17.50;70.00
25937;DHT22;13733;51.178;4.450;2023-04-24T15:39:11;16.60;74.30
25937;DHT22;13733;51.178;4.450;2023-04-24T15:41:37;16.60;74.30
25937;DHT22;13733;51.178;4.450;2023-04-24T15:44:03;16.30;75.20
25937;DHT22;13733;51.178;4.450;2023-04-24T15:46:29;16.50;75.60